sensor_id;sensor_type;location;lat;lon;timestamp;temperature;humidity
56103;DHT22;41970;48.774;9.280;2022-07-29T00:00:44;20.60;99.90
56103;DHT22;41970;48.774;9.280;2022-07-29T00:03:11;20.60;99.90
56103;DHT22;41970;48.774;9.280;2022-07-29T00:05:41;20.60;99.90
56103;DHT22;41970;48.774;9.280;2022-07-29T00:08:08;20.60;99.90
56103;DHT22;41970;48.774;9.280;2022-07-29T00:10:34;20.70;99.90
56103;DHT22;41970;48.774;9.280;2022-07-29T00:13:01;20.70;99.90
56103;DHT22;41970;48.774;9.280;2022-07-29T00:15:27;20.80;99.90
56103;DHT22;41970;48.774;9.280;2022-07-29T00:17:53;20.90;99.90
56103;DHT22;41970;48.774;9.280;2022-07-29T00:20:19;20.90;99.90
56103;DHT22;41970;48.774;9.280;2022-07-29T00:22:45;20.90;99.90
56103;DHT22;41970;48.774;9.280;2022-07-29T00:25:12;21.00;99.90
56103;DHT22;41970;48.774;9.280;2022-07-29T00:27:38;21.00;99.90
56103;DHT22;41970;48.774;9.280;2022-07-29T00:30:05;21.10;99.90
56103;DHT22;41970;48.774;9.280;2022-07-29T00:32:32;21.00;99.90
56103;DHT22;41970;48.774;9.280;2022-07-29T00:34:58;20.90;99.90
56103;DHT22;41970;48.774;9.280;2022-07-29T00:37:42;20.70;99.90
56103;DHT22;41970;48.774;9.280;2022-07-29T00:40:08;20.70;99.90
56103;DHT22;41970;48.774;9.280;2022-07-29T00:42:49;20.80;99.90
56103;DHT22;41970;48.774;9.280;2022-07-29T00:45:16;20.80;99.90
56103;DHT22;41970;48.774;9.280;2022-07-29T00:47:42;20.80;99.90
56103;DHT22;41970;48.774;9.280;2022-07-29T00:50:09;20.70;99.90
56103;DHT22;41970;48.774;9.280;2022-07-29T00:52:37;20.50;99.90
56103;DHT22;41970;48.774;9.280;2022-07-29T00:55:05;20.40;99.90
56103;DHT22;41970;48.774;9.280;2022-07-29T00:57:32;20.40;99.90
56103;DHT22;41970;48.774;9.280;2022-07-29T00:59:58;20.40;99.90
56103;DHT22;41970;48.774;9.280;2022-07-29T01:02:24;20.40;99.90
56103;DHT22;41970;48.774;9.280;2022-07-29T01:04:50;20.40;99.90
56103;DHT22;41970;48.774;9.280;2022-07-29T01:07:17;20.40;99.90
56103;DHT22;41970;48.774;9.280;2022-07-29T01:09:45;20.40;99.90
56103;DHT22;41970;48.774;9.280;2022-07-29T01:12:19;20.40;99.90
56103;DHT22;41970;48.774;9.280;2022-07-29T01:14:46;20.30;99.90
56103;DHT22;41970;48.774;9.280;2022-07-29T01:20:16;20.10;99.90
56103;DHT22;41970;48.774;9.280;2022-07-29T01:23:07;20.20;99.90
56103;DHT22;41970;48.774;9.280;2022-07-29T01:31:47;20.20;99.90
56103;DHT22;41970;48.774;9.280;2022-07-29T01:37:45;20.20;99.90
56103;DHT22;41970;48.774;9.280;2022-07-29T01:40:20;20.20;99.90
56103;DHT22;41970;48.774;9.280;2022-07-29T01:42:52;20.20;99.90
56103;DHT22;41970;48.774;9.280;2022-07-29T01:45:37;20.20;99.90
56103;DHT22;41970;48.774;9.280;2022-07-29T01:48:20;20.20;99.90
56103;DHT22;41970;48.774;9.280;2022-07-29T01:50:53;20.10;99.90
56103;DHT22;41970;48.774;9.280;2022-07-29T01:53:29;20.10;99.90
56103;DHT22;41970;48.774;9.280;2022-07-29T01:55:59;20.10;99.90
56103;DHT22;41970;48.774;9.280;2022-07-29T01:58:26;20.10;99.90
56103;DHT22;41970;48.774;9.280;2022-07-29T02:00:56;20.20;99.90
56103;DHT22;41970;48.774;9.280;2022-07-29T02:03:23;20.40;99.90
56103;DHT22;41970;48.774;9.280;2022-07-29T02:05:50;20.50;99.90
56103;DHT22;41970;48.774;9.280;2022-07-29T02:08:18;20.40;99.90
56103;DHT22;41970;48.774;9.280;2022-07-29T02:10:45;20.20;99.90
56103;DHT22;41970;48.774;9.280;2022-07-29T02:13:13;20.00;99.90
56103;DHT22;41970;48.774;9.280;2022-07-29T02:15:42;19.90;99.90
56103;DHT22;41970;48.774;9.280;2022-07-29T02:18:16;19.90;99.90
56103;DHT22;41970;48.774;9.280;2022-07-29T02:20:47;19.90;99.90
56103;DHT22;41970;48.774;9.280;2022-07-29T02:23:17;19.70;99.90
56103;DHT22;41970;48.774;9.280;2022-07-29T02:25:46;19.60;99.90
56103;DHT22;41970;48.774;9.280;2022-07-29T02:28:13;19.60;99.90
56103;DHT22;41970;48.774;9.280;2022-07-29T02:30:42;19.70;99.90
56103;DHT22;41970;48.774;9.280;2022-07-29T02:33:12;19.70;99.90
56103;DHT22;41970;48.774;9.280;2022-07-29T02:35:40;19.60;99.90
56103;DHT22;41970;48.774;9.280;2022-07-29T02:38:10;19.60;99.90
56103;DHT22;41970;48.774;9.280;2022-07-29T02:40:57;19.50;99.90
56103;DHT22;41970;48.774;9.280;2022-07-29T02:43:24;19.50;99.90
56103;DHT22;41970;48.774;9.280;2022-07-29T02:45:53;19.40;99.90
56103;DHT22;41970;48.774;9.280;2022-07-29T02:48:25;19.40;99.90
56103;DHT22;41970;48.774;9.280;2022-07-29T02:51:01;19.30;99.90
56103;DHT22;41970;48.774;9.280;2022-07-29T02:53:28;19.30;99.90
56103;DHT22;41970;48.774;9.280;2022-07-29T02:55:59;19.30;99.90
56103;DHT22;41970;48.774;9.280;2022-07-29T02:58:32;19.30;99.90
56103;DHT22;41970;48.774;9.280;2022-07-29T03:01:03;19.10;99.90
56103;DHT22;41970;48.774;9.280;2022-07-29T03:03:36;19.10;99.90
56103;DHT22;41970;48.774;9.280;2022-07-29T03:06:03;19.10;99.90
56103;DHT22;41970;48.774;9.280;2022-07-29T03:08:32;19.30;99.90
56103;DHT22;41970;48.774;9.280;2022-07-29T03:10:58;19.50;99.90
56103;DHT22;41970;48.774;9.280;2022-07-29T03:13:25;19.50;99.90
56103;DHT22;41970;48.774;9.280;2022-07-29T03:15:52;19.50;99.90
56103;DHT22;41970;48.774;9.280;2022-07-29T03:18:19;19.60;99.90
56103;DHT22;41970;48.774;9.280;2022-07-29T03:20:45;19.70;99.90
56103;DHT22;41970;48.774;9.280;2022-07-29T03:23:11;19.70;99.90
56103;DHT22;41970;48.774;9.280;2022-07-29T03:25:37;19.80;99.90
56103;DHT22;41970;48.774;9.280;2022-07-29T03:28:03;19.90;99.90
56103;DHT22;41970;48.774;9.280;2022-07-29T03:30:28;19.80;99.90
56103;DHT22;41970;48.774;9.280;2022-07-29T03:32:56;19.50;99.90
56103;DHT22;41970;48.774;9.280;2022-07-29T03:35:22;19.20;99.90
56103;DHT22;41970;48.774;9.280;2022-07-29T03:37:48;19.20;99.90
56103;DHT22;41970;48.774;9.280;2022-07-29T03:40:19;19.20;99.90
56103;DHT22;41970;48.774;9.280;2022-07-29T03:42:48;19.30;99.90
56103;DHT22;41970;48.774;9.280;2022-07-29T03:45:18;19.50;99.90
56103;DHT22;41970;48.774;9.280;2022-07-29T03:47:50;19.50;99.90
56103;DHT22;41970;48.774;9.280;2022-07-29T03:50:18;19.50;99.90
56103;DHT22;41970;48.774;9.280;2022-07-29T03:52:47;19.50;99.90
56103;DHT22;41970;48.774;9.280;2022-07-29T03:55:13;19.50;99.90
56103;DHT22;41970;48.774;9.280;2022-07-29T03:57:40;19.50;99.90
56103;DHT22;41970;48.774;9.280;2022-07-29T04:00:07;19.50;99.90
56103;DHT22;41970;48.774;9.280;2022-07-29T04:02:36;19.50;99.90
56103;DHT22;41970;48.774;9.280;2022-07-29T04:05:03;19.50;99.90
56103;DHT22;41970;48.774;9.280;2022-07-29T04:07:29;19.40;99.90
56103;DHT22;41970;48.774;9.280;2022-07-29T04:09:55;19.20;99.90
56103;DHT22;41970;48.774;9.280;2022-07-29T04:12:21;19.20;99.90
56103;DHT22;41970;48.774;9.280;2022-07-29T04:14:47;19.20;99.90
56103;DHT22;41970;48.774;9.280;2022-07-29T04:17:12;19.30;99.90
56103;DHT22;41970;48.774;9.280;2022-07-29T04:19:38;19.20;99.90
56103;DHT22;41970;48.774;9.280;2022-07-29T04:22:04;19.10;99.90
56103;DHT22;41970;48.774;9.280;2022-07-29T04:24:30;19.10;99.90
56103;DHT22;41970;48.774;9.280;2022-07-29T04:26:56;19.10;99.90
56103;DHT22;41970;48.774;9.280;2022-07-29T04:29:21;19.10;99.90
56103;DHT22;41970;48.774;9.280;2022-07-29T04:31:47;19.10;99.90
56103;DHT22;41970;48.774;9.280;2022-07-29T04:34:13;19.20;99.90
56103;DHT22;41970;48.774;9.280;2022-07-29T04:36:39;19.20;99.90
56103;DHT22;41970;48.774;9.280;2022-07-29T04:39:05;19.10;99.90
56103;DHT22;41970;48.774;9.280;2022-07-29T04:41:31;19.00;99.90
56103;DHT22;41970;48.774;9.280;2022-07-29T04:43:57;19.00;99.90
56103;DHT22;41970;48.774;9.280;2022-07-29T04:46:23;19.00;99.90
56103;DHT22;41970;48.774;9.280;2022-07-29T04:48:48;19.00;99.90
56103;DHT22;41970;48.774;9.280;2022-07-29T04:51:16;19.00;99.90
56103;DHT22;41970;48.774;9.280;2022-07-29T04:53:42;19.10;99.90
56103;DHT22;41970;48.774;9.280;2022-07-29T04:56:08;19.30;99.90
56103;DHT22;41970;48.774;9.280;2022-07-29T04:58:37;19.30;99.90
56103;DHT22;41970;48.774;9.280;2022-07-29T05:01:03;19.40;99.90
56103;DHT22;41970;48.774;9.280;2022-07-29T05:03:30;19.60;99.90
56103;DHT22;41970;48.774;9.280;2022-07-29T05:05:55;19.70;99.90
56103;DHT22;41970;48.774;9.280;2022-07-29T05:08:21;19.90;99.90
56103;DHT22;41970;48.774;9.280;2022-07-29T05:10:47;20.00;99.90
56103;DHT22;41970;48.774;9.280;2022-07-29T05:13:13;20.10;99.90
56103;DHT22;41970;48.774;9.280;2022-07-29T05:15:39;20.10;99.90
56103;DHT22;41970;48.774;9.280;2022-07-29T05:18:05;20.10;99.90
56103;DHT22;41970;48.774;9.280;2022-07-29T05:20:31;20.00;99.90
56103;DHT22;41970;48.774;9.280;2022-07-29T05:22:59;20.00;99.90
56103;DHT22;41970;48.774;9.280;2022-07-29T05:25:26;20.10;99.90
56103;DHT22;41970;48.774;9.280;2022-07-29T05:27:52;20.20;99.90
56103;DHT22;41970;48.774;9.280;2022-07-29T05:30:19;20.20;99.90
56103;DHT22;41970;48.774;9.280;2022-07-29T05:32:45;20.10;99.90
56103;DHT22;41970;48.774;9.280;2022-07-29T05:35:12;20.10;99.90
56103;DHT22;41970;48.774;9.280;2022-07-29T05:37:37;20.10;99.90
56103;DHT22;41970;48.774;9.280;2022-07-29T05:40:04;20.00;99.90
56103;DHT22;41970;48.774;9.280;2022-07-29T05:42:30;20.10;99.90
56103;DHT22;41970;48.774;9.280;2022-07-29T05:44:56;20.30;99.90
56103;DHT22;41970;48.774;9.280;2022-07-29T05:47:23;20.40;99.90
56103;DHT22;41970;48.774;9.280;2022-07-29T05:49:49;20.50;99.90
56103;DHT22;41970;48.774;9.280;2022-07-29T05:52:16;20.40;99.90
56103;DHT22;41970;48.774;9.280;2022-07-29T05:54:42;20.40;99.90
56103;DHT22;41970;48.774;9.280;2022-07-29T05:57:08;20.30;99.90
56103;DHT22;41970;48.774;9.280;2022-07-29T05:59:37;20.20;99.90
56103;DHT22;41970;48.774;9.280;2022-07-29T06:02:04;20.20;99.90
56103;DHT22;41970;48.774;9.280;2022-07-29T06:04:31;20.20;99.90
56103;DHT22;41970;48.774;9.280;2022-07-29T06:06:57;20.20;99.90
56103;DHT22;41970;48.774;9.280;2022-07-29T06:09:23;20.20;99.90
56103;DHT22;41970;48.774;9.280;2022-07-29T06:11:49;20.20;99.90
56103;DHT22;41970;48.774;9.280;2022-07-29T06:14:15;20.30;99.90
56103;DHT22;41970;48.774;9.280;2022-07-29T06:16:41;20.20;99.90
56103;DHT22;41970;48.774;9.280;2022-07-29T06:19:06;20.20;99.90
56103;DHT22;41970;48.774;9.280;2022-07-29T06:21:32;20.30;99.90
56103;DHT22;41970;48.774;9.280;2022-07-29T06:23:59;20.50;99.90
56103;DHT22;41970;48.774;9.280;2022-07-29T06:26:25;20.60;99.90
56103;DHT22;41970;48.774;9.280;2022-07-29T06:28:51;20.70;99.90
56103;DHT22;41970;48.774;9.280;2022-07-29T06:31:20;20.70;99.90
56103;DHT22;41970;48.774;9.280;2022-07-29T06:33:46;20.70;99.90
56103;DHT22;41970;48.774;9.280;2022-07-29T06:36:11;20.70;99.90
56103;DHT22;41970;48.774;9.280;2022-07-29T06:38:37;20.80;99.90
56103;DHT22;41970;48.774;9.280;2022-07-29T06:41:03;20.80;99.90
56103;DHT22;41970;48.774;9.280;2022-07-29T06:43:37;20.90;99.90
56103;DHT22;41970;48.774;9.280;2022-07-29T06:46:05;21.00;99.90
56103;DHT22;41970;48.774;9.280;2022-07-29T06:48:32;21.10;99.90
56103;DHT22;41970;48.774;9.280;2022-07-29T06:50:59;21.10;99.90
56103;DHT22;41970;48.774;9.280;2022-07-29T06:53:25;21.30;99.90
56103;DHT22;41970;48.774;9.280;2022-07-29T06:55:51;21.40;99.90
56103;DHT22;41970;48.774;9.280;2022-07-29T06:58:17;21.50;99.90
56103;DHT22;41970;48.774;9.280;2022-07-29T07:00:47;21.60;99.90
56103;DHT22;41970;48.774;9.280;2022-07-29T07:03:14;21.60;99.90
56103;DHT22;41970;48.774;9.280;2022-07-29T07:05:40;21.80;99.90
56103;DHT22;41970;48.774;9.280;2022-07-29T07:08:06;22.10;99.90
56103;DHT22;41970;48.774;9.280;2022-07-29T07:10:32;22.40;99.90
56103;DHT22;41970;48.774;9.280;2022-07-29T07:12:59;22.70;99.90
56103;DHT22;41970;48.774;9.280;2022-07-29T07:15:26;22.90;99.90
56103;DHT22;41970;48.774;9.280;2022-07-29T07:17:52;22.90;99.90
56103;DHT22;41970;48.774;9.280;2022-07-29T07:20:19;22.80;99.90
56103;DHT22;41970;48.774;9.280;2022-07-29T07:22:45;22.60;99.90
56103;DHT22;41970;48.774;9.280;2022-07-29T07:25:12;22.80;99.90
56103;DHT22;41970;48.774;9.280;2022-07-29T07:27:39;22.80;99.90
56103;DHT22;41970;48.774;9.280;2022-07-29T07:30:06;22.90;99.90
56103;DHT22;41970;48.774;9.280;2022-07-29T07:32:35;23.10;99.90
56103;DHT22;41970;48.774;9.280;2022-07-29T07:35:03;23.30;99.90
56103;DHT22;41970;48.774;9.280;2022-07-29T07:37:30;23.20;99.90
56103;DHT22;41970;48.774;9.280;2022-07-29T07:39:56;23.20;99.90
56103;DHT22;41970;48.774;9.280;2022-07-29T07:42:23;23.20;99.90
56103;DHT22;41970;48.774;9.280;2022-07-29T07:44:49;23.20;99.90
56103;DHT22;41970;48.774;9.280;2022-07-29T07:47:15;23.30;99.90
56103;DHT22;41970;48.774;9.280;2022-07-29T07:49:51;23.50;99.90
56103;DHT22;41970;48.774;9.280;2022-07-29T07:52:18;23.50;99.90
56103;DHT22;41970;48.774;9.280;2022-07-29T07:54:44;23.50;99.90
56103;DHT22;41970;48.774;9.280;2022-07-29T07:57:14;23.80;99.90
56103;DHT22;41970;48.774;9.280;2022-07-29T07:59:40;24.00;99.90
56103;DHT22;41970;48.774;9.280;2022-07-29T08:02:07;24.20;99.90
56103;DHT22;41970;48.774;9.280;2022-07-29T08:04:34;24.20;99.50
56103;DHT22;41970;48.774;9.280;2022-07-29T08:07:00;24.30;99.50
56103;DHT22;41970;48.774;9.280;2022-07-29T08:09:28;24.30;99.60
56103;DHT22;41970;48.774;9.280;2022-07-29T08:11:55;24.50;99.40
56103;DHT22;41970;48.774;9.280;2022-07-29T08:14:21;24.70;99.10
56103;DHT22;41970;48.774;9.280;2022-07-29T08:16:47;25.00;98.10
56103;DHT22;41970;48.774;9.280;2022-07-29T08:19:13;25.10;97.80
56103;DHT22;41970;48.774;9.280;2022-07-29T08:21:39;25.30;97.40
56103;DHT22;41970;48.774;9.280;2022-07-29T08:24:06;25.50;96.60
56103;DHT22;41970;48.774;9.280;2022-07-29T08:26:50;25.70;95.60
56103;DHT22;41970;48.774;9.280;2022-07-29T08:29:16;25.50;95.50
56103;DHT22;41970;48.774;9.280;2022-07-29T08:31:42;25.50;95.50
56103;DHT22;41970;48.774;9.280;2022-07-29T08:34:08;26.00;95.20
56103;DHT22;41970;48.774;9.280;2022-07-29T08:36:34;26.30;94.30
56103;DHT22;41970;48.774;9.280;2022-07-29T08:39:02;26.80;93.20
56103;DHT22;41970;48.774;9.280;2022-07-29T08:41:28;27.50;92.70
56103;DHT22;41970;48.774;9.280;2022-07-29T08:43:54;27.40;91.70
56103;DHT22;41970;48.774;9.280;2022-07-29T08:46:20;27.60;91.80
56103;DHT22;41970;48.774;9.280;2022-07-29T08:48:47;27.70;90.50
56103;DHT22;41970;48.774;9.280;2022-07-29T08:51:15;28.00;89.50
56103;DHT22;41970;48.774;9.280;2022-07-29T08:53:46;28.30;89.70
56103;DHT22;41970;48.774;9.280;2022-07-29T08:56:17;28.50;86.70
56103;DHT22;41970;48.774;9.280;2022-07-29T08:58:44;28.30;86.80
56103;DHT22;41970;48.774;9.280;2022-07-29T09:01:14;27.90;87.70
56103;DHT22;41970;48.774;9.280;2022-07-29T09:03:44;28.20;87.10
56103;DHT22;41970;48.774;9.280;2022-07-29T09:06:14;28.20;87.80
56103;DHT22;41970;48.774;9.280;2022-07-29T09:08:41;28.30;85.80
56103;DHT22;41970;48.774;9.280;2022-07-29T09:11:07;28.30;85.10
56103;DHT22;41970;48.774;9.280;2022-07-29T09:13:34;28.00;86.50
56103;DHT22;41970;48.774;9.280;2022-07-29T09:16:00;28.60;85.00
56103;DHT22;41970;48.774;9.280;2022-07-29T09:18:37;28.80;81.50
56103;DHT22;41970;48.774;9.280;2022-07-29T09:21:05;28.30;81.10
56103;DHT22;41970;48.774;9.280;2022-07-29T09:26:34;28.00;83.30
56103;DHT22;41970;48.774;9.280;2022-07-29T09:29:08;28.60;81.00
56103;DHT22;41970;48.774;9.280;2022-07-29T09:31:38;29.00;79.40
56103;DHT22;41970;48.774;9.280;2022-07-29T09:34:05;29.10;76.70
56103;DHT22;41970;48.774;9.280;2022-07-29T09:36:46;29.30;77.70
56103;DHT22;41970;48.774;9.280;2022-07-29T09:39:13;29.50;75.20
56103;DHT22;41970;48.774;9.280;2022-07-29T09:41:51;29.60;73.70
56103;DHT22;41970;48.774;9.280;2022-07-29T09:44:21;29.60;73.80
56103;DHT22;41970;48.774;9.280;2022-07-29T09:47:01;29.70;73.00
56103;DHT22;41970;48.774;9.280;2022-07-29T09:49:34;29.90;73.50
56103;DHT22;41970;48.774;9.280;2022-07-29T09:52:09;29.90;72.90
56103;DHT22;41970;48.774;9.280;2022-07-29T09:54:37;30.10;73.40
56103;DHT22;41970;48.774;9.280;2022-07-29T09:57:08;30.10;70.80
56103;DHT22;41970;48.774;9.280;2022-07-29T09:59:38;29.70;71.40
56103;DHT22;41970;48.774;9.280;2022-07-29T10:02:13;29.50;72.10
56103;DHT22;41970;48.774;9.280;2022-07-29T10:04:42;29.20;73.20
56103;DHT22;41970;48.774;9.280;2022-07-29T10:07:08;29.10;73.00
56103;DHT22;41970;48.774;9.280;2022-07-29T10:09:35;29.40;73.30
56103;DHT22;41970;48.774;9.280;2022-07-29T10:12:12;29.20;71.90
56103;DHT22;41970;48.774;9.280;2022-07-29T10:14:42;29.30;74.20
56103;DHT22;41970;48.774;9.280;2022-07-29T10:17:09;29.20;72.80
56103;DHT22;41970;48.774;9.280;2022-07-29T10:19:37;29.00;73.70
56103;DHT22;41970;48.774;9.280;2022-07-29T10:22:08;29.30;73.10
56103;DHT22;41970;48.774;9.280;2022-07-29T10:24:35;29.80;71.80
56103;DHT22;41970;48.774;9.280;2022-07-29T10:27:03;29.90;71.30
56103;DHT22;41970;48.774;9.280;2022-07-29T10:29:29;30.00;70.00
56103;DHT22;41970;48.774;9.280;2022-07-29T10:37:52;29.60;68.90
56103;DHT22;41970;48.774;9.280;2022-07-29T10:43:34;29.60;69.80
56103;DHT22;41970;48.774;9.280;2022-07-29T10:46:02;29.60;68.70
56103;DHT22;41970;48.774;9.280;2022-07-29T10:48:29;29.70;67.80
56103;DHT22;41970;48.774;9.280;2022-07-29T10:51:02;29.80;67.00
56103;DHT22;41970;48.774;9.280;2022-07-29T10:56:30;29.60;66.40
56103;DHT22;41970;48.774;9.280;2022-07-29T11:01:43;29.20;67.90
56103;DHT22;41970;48.774;9.280;2022-07-29T11:04:09;29.00;73.50
56103;DHT22;41970;48.774;9.280;2022-07-29T11:07:08;28.90;74.90
56103;DHT22;41970;48.774;9.280;2022-07-29T11:09:34;28.50;77.80
56103;DHT22;41970;48.774;9.280;2022-07-29T11:12:00;28.30;82.40
56103;DHT22;41970;48.774;9.280;2022-07-29T11:17:23;27.70;87.10
56103;DHT22;41970;48.774;9.280;2022-07-29T11:19:48;27.40;88.10
56103;DHT22;41970;48.774;9.280;2022-07-29T11:22:33;27.00;90.00
56103;DHT22;41970;48.774;9.280;2022-07-29T11:25:16;26.50;91.80
56103;DHT22;41970;48.774;9.280;2022-07-29T11:27:44;26.00;95.00
56103;DHT22;41970;48.774;9.280;2022-07-29T11:30:10;25.70;97.30
56103;DHT22;41970;48.774;9.280;2022-07-29T11:32:42;25.50;96.00
56103;DHT22;41970;48.774;9.280;2022-07-29T11:35:22;25.30;93.50
56103;DHT22;41970;48.774;9.280;2022-07-29T11:38:27;25.00;92.40
56103;DHT22;41970;48.774;9.280;2022-07-29T11:41:22;24.00;93.90
56103;DHT22;41970;48.774;9.280;2022-07-29T11:43:58;23.20;97.70
56103;DHT22;41970;48.774;9.280;2022-07-29T11:46:44;23.40;98.60
56103;DHT22;41970;48.774;9.280;2022-07-29T11:49:24;23.30;97.10
56103;DHT22;41970;48.774;9.280;2022-07-29T11:51:55;23.10;96.90
56103;DHT22;41970;48.774;9.280;2022-07-29T11:54:26;23.10;99.90
56103;DHT22;41970;48.774;9.280;2022-07-29T11:56:57;23.30;99.10
56103;DHT22;41970;48.774;9.280;2022-07-29T11:59:24;23.00;98.80
56103;DHT22;41970;48.774;9.280;2022-07-29T12:04:19;22.10;99.90
56103;DHT22;41970;48.774;9.280;2022-07-29T12:06:54;22.40;99.90
56103;DHT22;41970;48.774;9.280;2022-07-29T12:09:21;22.50;99.90
56103;DHT22;41970;48.774;9.280;2022-07-29T12:11:47;22.50;99.90
56103;DHT22;41970;48.774;9.280;2022-07-29T12:14:31;22.60;99.90
56103;DHT22;41970;48.774;9.280;2022-07-29T12:16:58;22.70;99.60
56103;DHT22;41970;48.774;9.280;2022-07-29T12:19:25;22.70;99.90
56103;DHT22;41970;48.774;9.280;2022-07-29T12:21:55;22.80;99.60
56103;DHT22;41970;48.774;9.280;2022-07-29T12:24:24;22.60;99.50
56103;DHT22;41970;48.774;9.280;2022-07-29T12:27:07;22.20;99.80
56103;DHT22;41970;48.774;9.280;2022-07-29T12:29:33;22.10;99.90
56103;DHT22;41970;48.774;9.280;2022-07-29T12:31:59;22.10;99.90
56103;DHT22;41970;48.774;9.280;2022-07-29T12:34:27;22.10;99.90
56103;DHT22;41970;48.774;9.280;2022-07-29T12:36:54;22.20;99.90
56103;DHT22;41970;48.774;9.280;2022-07-29T12:39:21;22.00;99.90
56103;DHT22;41970;48.774;9.280;2022-07-29T12:41:47;21.90;99.90
56103;DHT22;41970;48.774;9.280;2022-07-29T12:44:12;21.70;99.90
56103;DHT22;41970;48.774;9.280;2022-07-29T12:46:38;21.60;99.90
56103;DHT22;41970;48.774;9.280;2022-07-29T12:49:04;21.80;99.90
56103;DHT22;41970;48.774;9.280;2022-07-29T12:54:11;22.40;99.90
56103;DHT22;41970;48.774;9.280;2022-07-29T12:56:39;22.50;99.90
56103;DHT22;41970;48.774;9.280;2022-07-29T12:59:15;22.70;99.90
56103;DHT22;41970;48.774;9.280;2022-07-29T13:01:41;22.80;99.90
56103;DHT22;41970;48.774;9.280;2022-07-29T13:04:07;22.80;99.90
56103;DHT22;41970;48.774;9.280;2022-07-29T13:06:41;22.90;99.90
56103;DHT22;41970;48.774;9.280;2022-07-29T13:09:13;23.00;99.90
56103;DHT22;41970;48.774;9.280;2022-07-29T13:11:41;23.10;99.90
56103;DHT22;41970;48.774;9.280;2022-07-29T13:14:09;23.20;99.90
56103;DHT22;41970;48.774;9.280;2022-07-29T13:16:36;23.10;99.90
56103;DHT22;41970;48.774;9.280;2022-07-29T13:19:12;23.10;99.90
56103;DHT22;41970;48.774;9.280;2022-07-29T13:21:39;23.00;99.90
56103;DHT22;41970;48.774;9.280;2022-07-29T13:24:06;22.90;99.90
56103;DHT22;41970;48.774;9.280;2022-07-29T13:26:32;22.70;99.90
56103;DHT22;41970;48.774;9.280;2022-07-29T13:28:58;22.60;99.90
56103;DHT22;41970;48.774;9.280;2022-07-29T13:31:24;22.60;99.90
56103;DHT22;41970;48.774;9.280;2022-07-29T13:33:50;22.80;99.90
56103;DHT22;41970;48.774;9.280;2022-07-29T13:36:16;22.80;99.90
56103;DHT22;41970;48.774;9.280;2022-07-29T13:38:43;22.90;99.90
56103;DHT22;41970;48.774;9.280;2022-07-29T13:41:08;22.90;99.90
56103;DHT22;41970;48.774;9.280;2022-07-29T13:43:34;22.80;99.90
56103;DHT22;41970;48.774;9.280;2022-07-29T13:46:00;22.90;99.90
56103;DHT22;41970;48.774;9.280;2022-07-29T13:48:26;23.00;99.90
56103;DHT22;41970;48.774;9.280;2022-07-29T13:50:52;23.00;99.90
56103;DHT22;41970;48.774;9.280;2022-07-29T13:53:18;23.10;99.90
56103;DHT22;41970;48.774;9.280;2022-07-29T13:55:44;23.20;99.90
56103;DHT22;41970;48.774;9.280;2022-07-29T13:58:09;22.90;99.90
56103;DHT22;41970;48.774;9.280;2022-07-29T14:00:35;22.20;99.90
56103;DHT22;41970;48.774;9.280;2022-07-29T14:03:01;21.90;99.90
56103;DHT22;41970;48.774;9.280;2022-07-29T14:05:27;21.90;99.90
56103;DHT22;41970;48.774;9.280;2022-07-29T14:07:53;21.80;99.90
56103;DHT22;41970;48.774;9.280;2022-07-29T14:10:18;21.70;99.90
56103;DHT22;41970;48.774;9.280;2022-07-29T14:12:44;21.90;99.90
56103;DHT22;41970;48.774;9.280;2022-07-29T14:15:10;22.10;99.90
56103;DHT22;41970;48.774;9.280;2022-07-29T14:17:36;22.40;99.90
56103;DHT22;41970;48.774;9.280;2022-07-29T14:20:02;22.60;99.90
56103;DHT22;41970;48.774;9.280;2022-07-29T14:22:28;22.70;99.90
56103;DHT22;41970;48.774;9.280;2022-07-29T14:24:54;22.80;99.90
56103;DHT22;41970;48.774;9.280;2022-07-29T14:27:20;22.90;99.90
56103;DHT22;41970;48.774;9.280;2022-07-29T14:29:46;23.10;99.90
56103;DHT22;41970;48.774;9.280;2022-07-29T14:32:12;23.40;99.90
56103;DHT22;41970;48.774;9.280;2022-07-29T14:34:40;23.60;99.90
56103;DHT22;41970;48.774;9.280;2022-07-29T14:37:06;23.60;99.90
56103;DHT22;41970;48.774;9.280;2022-07-29T14:39:33;23.60;99.90
56103;DHT22;41970;48.774;9.280;2022-07-29T14:41:59;23.70;99.90
56103;DHT22;41970;48.774;9.280;2022-07-29T14:44:25;23.70;99.90
56103;DHT22;41970;48.774;9.280;2022-07-29T14:46:57;23.60;99.90
56103;DHT22;41970;48.774;9.280;2022-07-29T14:49:25;23.30;99.90
56103;DHT22;41970;48.774;9.280;2022-07-29T14:51:51;23.20;99.90
56103;DHT22;41970;48.774;9.280;2022-07-29T14:54:17;23.30;99.90
56103;DHT22;41970;48.774;9.280;2022-07-29T14:56:43;23.30;99.90
56103;DHT22;41970;48.774;9.280;2022-07-29T14:59:09;23.40;99.90
56103;DHT22;41970;48.774;9.280;2022-07-29T15:01:34;23.50;99.90
56103;DHT22;41970;48.774;9.280;2022-07-29T15:04:00;23.60;99.90
56103;DHT22;41970;48.774;9.280;2022-07-29T15:06:26;23.70;99.90
56103;DHT22;41970;48.774;9.280;2022-07-29T15:08:52;23.80;99.90
56103;DHT22;41970;48.774;9.280;2022-07-29T15:11:18;23.90;99.90
56103;DHT22;41970;48.774;9.280;2022-07-29T15:13:44;23.90;99.90
56103;DHT22;41970;48.774;9.280;2022-07-29T15:16:10;24.00;99.90
56103;DHT22;41970;48.774;9.280;2022-07-29T15:18:36;24.00;99.90
56103;DHT22;41970;48.774;9.280;2022-07-29T15:21:04;24.10;99.90
56103;DHT22;41970;48.774;9.280;2022-07-29T15:23:32;24.20;99.90
56103;DHT22;41970;48.774;9.280;2022-07-29T15:25:58;24.10;99.90
56103;DHT22;41970;48.774;9.280;2022-07-29T15:28:24;24.30;99.90
56103;DHT22;41970;48.774;9.280;2022-07-29T15:30:50;24.30;99.90
56103;DHT22;41970;48.774;9.280;2022-07-29T15:33:16;24.20;99.90
56103;DHT22;41970;48.774;9.280;2022-07-29T15:35:42;24.30;99.90
56103;DHT22;41970;48.774;9.280;2022-07-29T15:38:08;24.40;99.90
56103;DHT22;41970;48.774;9.280;2022-07-29T15:40:34;24.40;99.90
56103;DHT22;41970;48.774;9.280;2022-07-29T15:43:04;24.40;99.90
56103;DHT22;41970;48.774;9.280;2022-07-29T15:45:35;24.30;99.90
56103;DHT22;41970;48.774;9.280;2022-07-29T15:48:02;24.40;99.90
56103;DHT22;41970;48.774;9.280;2022-07-29T15:50:27;24.20;99.90
56103;DHT22;41970;48.774;9.280;2022-07-29T15:52:53;24.20;99.90
56103;DHT22;41970;48.774;9.280;2022-07-29T15:55:19;24.30;99.90
56103;DHT22;41970;48.774;9.280;2022-07-29T15:57:45;24.30;99.90
56103;DHT22;41970;48.774;9.280;2022-07-29T16:00:11;24.40;99.90
56103;DHT22;41970;48.774;9.280;2022-07-29T16:02:38;24.50;99.90
56103;DHT22;41970;48.774;9.280;2022-07-29T16:05:04;24.40;99.90
56103;DHT22;41970;48.774;9.280;2022-07-29T16:07:30;24.30;99.90
56103;DHT22;41970;48.774;9.280;2022-07-29T16:09:57;24.40;99.90
56103;DHT22;41970;48.774;9.280;2022-07-29T16:12:23;24.50;99.90
56103;DHT22;41970;48.774;9.280;2022-07-29T16:14:49;24.50;99.90